Bowerman Airport
KHQM : now visible

Airfield :











YOU CAN JOIN US ON...

 
LOGIN :

Register | Disclaimer

   EN    FR    IT 

 









Legend :    VFR   Marginal VFR   IFR   Intensive IFR   Very Intensive IFR
Visi :
Ceiling :
>= 8 km
>= 3000ft
5 to 8 km
1000 to 3000 ft
1500m to 5 km
500 to 1000 ft
800 to 1500m
200 to 500 ft
< 800m
< 200 ft
Symbols :   Thunderstorms  Fog  Heavy snow  Heavy precipitations  Wind > 20 kt






- Airport Elevation : 18 ft


KHQM - Bowerman

CURRENT METAR :
  • 172353Z AUTO 29012KT 10SM CLR 21/11 A3016 RMK AO2 SLP217 T02060106 10211 20172 58010

EXPIRED METARs :
  • 172253Z AUTO 29013KT 10SM CLR 21/11 A3018 RMK AO2 SLP223 T02060106
  • 172153Z AUTO 30010KT 10SM CLR 21/12 A3018 RMK AO2 SLP223 T02060117
  • 172143Z AUTO 29012KT 1SM HZ CLR 21/12 A3018 RMK AO2 T02060117

TAF KHQM
Valid from the 18 at 00:00 until the 19 at 00:00 UTC


172327Z 1800/1824 29012KT P6SM SKC
FM180300 27006KT P6SM SCT020 SCT200
FM180900 28003KT P6SM OVC010
FM181200 28004KT 5SM BR OVC007
FM181600 27006KT P6SM OVC015
FM182100 25017KT P6SM FEW250
KZSE FIR / North America



MET'MAP, your aeronautical weather chart ! - Copyright ORBIFLY December 2007 - Disclaimer

ORBIFLY MET'MAP TEAM :

Programming & Development : Alexandra Zaïnal
Concept & original design : Baudouin d'Aumeries
Assistance for programming : Marc-Olivier Méhu
Technical & hardware support : Manuel Goepfert

Contact : metmap@orbifly.com




SOURCES & CREDITS :

   NOAA       Earth
Advisory